Time;durP1;ratioP1;P1;durP2;ratioP2;P2;SDS_P1;SDS_P2;PMS_P1;PMS_P2;Temp;Humidity;BMP_temperature;BMP_pressure;BME280_temperature;BME280_humidity;BME280_pressure;Samples;Min_cycle;Max_cycle;Signal;HPM_P1;HPM_P2
2021/05/07 00:00:04;;;;;;;4.60;2.45;;;;;;;;;;5035992;28;20773;-81
2021/05/07 00:02:29;;;;;;;4.57;2.22;;;;;;;;;;5046106;28;20085;-80
2021/05/07 00:04:55;;;;;;;3.00;1.73;;;;;;;;;;5056008;28;20457;-81
2021/05/07 00:07:20;;;;;;;4.03;2.10;;;;;;;;;;5039488;28;20071;-80
2021/05/07 00:09:46;;;;;;;4.10;2.05;;;;;;;;;;5052277;28;20041;-81
2021/05/07 00:12:11;;;;;;;3.47;2.00;;;;;;;;;;5018620;28;20419;-81
2021/05/07 00:14:37;;;;;;;3.95;1.95;;;;;;;;;;5035298;28;20415;-81
2021/05/07 00:17:02;;;;;;;2.60;1.70;;;;;;;;;;5035582;28;20482;-81
2021/05/07 00:19:28;;;;;;;5.30;3.22;;;;;;;;;;5025999;28;20415;-81
2021/05/07 00:21:53;;;;;;;3.13;1.80;;;;;;;;;;5043216;28;20052;-81
2021/05/07 00:24:19;;;;;;;3.40;1.73;;;;;;;;;;5035635;28;20110;-80
2021/05/07 00:26:44;;;;;;;3.22;1.80;;;;;;;;;;5043473;28;20426;-80
2021/05/07 00:29:09;;;;;;;3.88;2.00;;;;;;;;;;5038587;28;20095;-81
2021/05/07 00:31:35;;;;;;;3.35;1.90;;;;;;;;;;5038312;28;20379;-80
2021/05/07 00:34:00;;;;;;;3.05;1.83;;;;;;;;;;5051668;28;20470;-80
2021/05/07 00:36:26;;;;;;;2.60;1.70;;;;;;;;;;5025513;28;20047;-80
2021/05/07 00:38:51;;;;;;;3.78;2.38;;;;;;;;;;5042225;28;20426;-81
2021/05/07 00:41:17;;;;;;;3.28;2.10;;;;;;;;;;5051754;28;20802;-81
2021/05/07 00:43:42;;;;;;;3.38;1.88;;;;;;;;;;5002163;28;20055;-81
2021/05/07 00:46:08;;;;;;;3.33;2.00;;;;;;;;;;5019289;28;20492;-80
2021/05/07 00:48:33;;;;;;;3.03;1.70;;;;;;;;;;5034268;28;20098;-81
2021/05/07 00:50:59;;;;;;;3.40;2.13;;;;;;;;;;5005387;28;20171;-81
2021/05/07 00:53:27;;;;;;;2.88;2.15;;;;;;;;;;5035293;28;20041;-80
2021/05/07 00:55:53;;;;;;;3.05;1.63;;;;;;;;;;5051498;28;20045;-81
2021/05/07 00:58:19;;;;;;;3.40;2.00;;;;;;;;;;5034744;28;20032;-81
2021/05/07 01:00:44;;;;;;;3.78;2.05;;;;;;;;;;5018893;28;20043;-81
2021/05/07 01:03:10;;;;;;;3.10;1.55;;;;;;;;;;5022542;28;20041;-81
2021/05/07 01:05:36;;;;;;;3.20;1.88;;;;;;;;;;5021005;28;21441;-81
2021/05/07 01:08:01;;;;;;;2.78;1.35;;;;;;;;;;5054826;28;20036;-81
2021/05/07 01:10:27;;;;;;;4.20;2.30;;;;;;;;;;5021757;28;20123;-80
2021/05/07 01:12:52;;;;;;;3.47;1.83;;;;;;;;;;5020828;28;20120;-81
2021/05/07 01:15:24;;;;;;;3.85;1.63;;;;;;;;;;5021758;28;20036;-80
2021/05/07 01:17:51;;;;;;;3.00;1.80;;;;;;;;;;5021808;28;20029;-81
2021/05/07 01:20:30;;;;;;;3.38;1.58;;;;;;;;;;5054461;28;20037;-80
2021/05/07 01:22:57;;;;;;;3.15;2.00;;;;;;;;;;5051404;28;20056;-80
2021/05/07 01:25:27;;;;;;;2.60;1.40;;;;;;;;;;5018025;28;20040;-80
2021/05/07 01:27:57;;;;;;;3.45;2.00;;;;;;;;;;5017930;28;20056;-80
2021/05/07 01:30:27;;;;;;;3.75;2.40;;;;;;;;;;5034857;28;20051;-80
2021/05/07 01:32:53;;;;;;;3.42;1.90;;;;;;;;;;5002128;28;20041;-80
2021/05/07 01:35:23;;;;;;;3.15;1.90;;;;;;;;;;5034599;28;20112;-80
2021/05/07 01:37:51;;;;;;;4.63;2.20;;;;;;;;;;5033186;28;20502;-80
2021/05/07 01:40:29;;;;;;;3.60;2.20;;;;;;;;;;5067390;28;20033;-80
2021/05/07 01:42:55;;;;;;;2.60;1.77;;;;;;;;;;5036814;28;20147;-81
2021/05/07 01:45:26;;;;;;;2.92;1.75;;;;;;;;;;5021375;28;20050;-81
2021/05/07 01:47:52;;;;;;;3.28;2.00;;;;;;;;;;5054533;28;20035;-80
2021/05/07 01:50:22;;;;;;;4.00;1.83;;;;;;;;;;5019928;28;20033;-80
2021/05/07 01:52:47;;;;;;;3.17;2.40;;;;;;;;;;5034147;28;20498;-80
2021/05/07 01:55:17;;;;;;;3.60;2.28;;;;;;;;;;5001380;28;20163;-80
2021/05/07 01:57:43;;;;;;;3.88;1.90;;;;;;;;;;5033965;28;20067;-81
2021/05/07 02:00:10;;;;;;;4.28;2.22;;;;;;;;;;5018873;28;20067;-80
2021/05/07 02:02:36;;;;;;;2.75;1.80;;;;;;;;;;5017780;28;20037;-81
2021/05/07 02:05:02;;;;;;;2.80;1.95;;;;;;;;;;5033906;28;20051;-81
2021/05/07 02:07:29;;;;;;;4.93;1.98;;;;;;;;;;5034246;28;20029;-81
2021/05/07 02:09:54;;;;;;;3.35;2.00;;;;;;;;;;5034107;28;20052;-81
2021/05/07 02:12:19;;;;;;;2.97;1.80;;;;;;;;;;5033184;28;20064;-80
2021/05/07 02:14:45;;;;;;;2.97;1.70;;;;;;;;;;5033524;28;20131;-81
2021/05/07 02:17:10;;;;;;;3.17;2.03;;;;;;;;;;5017404;28;20415;-81
2021/05/07 02:19:36;;;;;;;4.07;1.60;;;;;;;;;;5033769;28;20425;-81
2021/05/07 02:22:01;;;;;;;3.42;1.80;;;;;;;;;;5008157;28;20410;-81
2021/05/07 02:24:27;;;;;;;3.00;1.70;;;;;;;;;;5050186;28;20112;-81
2021/05/07 02:26:53;;;;;;;3.30;1.90;;;;;;;;;;5049769;28;20041;-81
2021/05/07 02:29:18;;;;;;;2.83;1.80;;;;;;;;;;5020352;28;20143;-81
2021/05/07 02:31:44;;;;;;;3.30;1.50;;;;;;;;;;5033313;28;20052;-81
2021/05/07 02:34:11;;;;;;;3.28;2.25;;;;;;;;;;5017144;28;20066;-84
2021/05/07 02:36:38;;;;;;;3.35;1.85;;;;;;;;;;5003400;28;20175;-83
2021/05/07 02:39:04;;;;;;;3.70;1.80;;;;;;;;;;5020581;28;20491;-83
2021/05/07 02:41:30;;;;;;;3.58;1.80;;;;;;;;;;5019830;28;20032;-83
2021/05/07 02:43:55;;;;;;;3.67;1.90;;;;;;;;;;5020302;28;20490;-83
2021/05/07 02:46:21;;;;;;;2.92;2.08;;;;;;;;;;5020581;28;20116;-83
2021/05/07 02:48:46;;;;;;;2.72;1.55;;;;;;;;;;5037121;28;20133;-83
2021/05/07 02:51:12;;;;;;;4.55;1.98;;;;;;;;;;5016825;28;20150;-83
2021/05/07 02:53:38;;;;;;;4.20;1.95;;;;;;;;;;5033441;28;20045;-82
2021/05/07 02:56:04;;;;;;;3.97;1.85;;;;;;;;;;5033168;28;20425;-83
2021/05/07 02:58:29;;;;;;;2.97;1.80;;;;;;;;;;5049297;28;20410;-84
2021/05/07 03:00:56;;;;;;;2.47;1.60;;;;;;;;;;5036817;28;20048;-84
2021/05/07 03:03:21;;;;;;;4.50;2.00;;;;;;;;;;5020113;28;20079;-84
2021/05/07 03:05:47;;;;;;;3.10;1.70;;;;;;;;;;5036610;28;20045;-84
2021/05/07 03:08:12;;;;;;;3.30;1.92;;;;;;;;;;5036926;28;20041;-84
2021/05/07 03:10:38;;;;;;;3.25;1.92;;;;;;;;;;5036217;28;20064;-84
2021/05/07 03:13:03;;;;;;;2.90;1.92;;;;;;;;;;5036639;28;20449;-83
2021/05/07 03:15:29;;;;;;;3.50;2.00;;;;;;;;;;5036422;28;20032;-84
2021/05/07 03:17:55;;;;;;;4.13;2.33;;;;;;;;;;5020308;28;20044;-84
2021/05/07 03:20:21;;;;;;;4.28;2.10;;;;;;;;;;5020253;28;20035;-84
2021/05/07 03:22:46;;;;;;;3.70;2.38;;;;;;;;;;5017133;28;20033;-84
2021/05/07 03:25:13;;;;;;;4.00;2.40;;;;;;;;;;5019709;28;20110;-83
2021/05/07 03:27:40;;;;;;;4.43;2.17;;;;;;;;;;5026096;28;20087;-83
2021/05/07 03:30:06;;;;;;;5.22;3.72;;;;;;;;;;5036511;28;20033;-83
2021/05/07 03:32:31;;;;;;;3.65;2.20;;;;;;;;;;5036800;28;20106;-84
2021/05/07 03:34:57;;;;;;;4.25;2.30;;;;;;;;;;5004061;28;20141;-84
2021/05/07 03:37:22;;;;;;;3.80;2.45;;;;;;;;;;5003843;28;20033;-83
2021/05/07 03:39:48;;;;;;;5.68;2.58;;;;;;;;;;5019714;28;20122;-84
2021/05/07 03:42:14;;;;;;;3.40;2.22;;;;;;;;;;5020103;28;20036;-84
2021/05/07 03:44:39;;;;;;;4.97;2.58;;;;;;;;;;5019981;28;20029;-84
2021/05/07 03:47:04;;;;;;;4.38;2.78;;;;;;;;;;5020045;28;20056;-84
2021/05/07 03:49:30;;;;;;;6.97;3.17;;;;;;;;;;5020028;28;20039;-85
2021/05/07 03:51:57;;;;;;;4.97;2.90;;;;;;;;;;5014233;28;20040;-84
2021/05/07 03:54:22;;;;;;;5.00;3.58;;;;;;;;;;5036232;28;20036;-84
2021/05/07 03:56:48;;;;;;;5.13;3.15;;;;;;;;;;5054290;28;20040;-85
2021/05/07 03:59:14;;;;;;;5.07;3.47;;;;;;;;;;5022449;28;20399;-82
2021/05/07 04:01:39;;;;;;;5.22;3.22;;;;;;;;;;5019467;28;20137;-81
2021/05/07 04:04:07;;;;;;;5.95;3.60;;;;;;;;;;5019482;28;20045;-82
2021/05/07 04:06:32;;;;;;;5.90;3.70;;;;;;;;;;5020266;28;20029;-82
2021/05/07 04:09:16;;;;;;;5.25;3.97;;;;;;;;;;5019379;28;20491;-82
2021/05/07 04:14:13;;;;;;;6.35;3.53;;;;;;;;;;5020911;28;20037;-82
2021/05/07 04:16:38;;;;;;;7.28;3.60;;;;;;;;;;5019750;28;20048;-81
2021/05/07 04:19:04;;;;;;;6.38;3.97;;;;;;;;;;5019669;28;20063;-82
2021/05/07 04:21:29;;;;;;;6.28;3.65;;;;;;;;;;5021554;28;20029;-82
2021/05/07 04:23:55;;;;;;;6.63;4.10;;;;;;;;;;5035575;28;20040;-81
2021/05/07 04:26:20;;;;;;;5.68;3.97;;;;;;;;;;5018318;28;20043;-81
2021/05/07 04:28:46;;;;;;;7.70;4.47;;;;;;;;;;5051699;28;20083;-81
2021/05/07 04:31:11;;;;;;;6.47;4.95;;;;;;;;;;5052141;28;20044;-80
2021/05/07 04:33:37;;;;;;;6.95;4.57;;;;;;;;;;5051692;28;20045;-83
2021/05/07 04:36:02;;;;;;;6.68;5.05;;;;;;;;;;5035123;28;20499;-82
2021/05/07 04:38:28;;;;;;;6.25;4.25;;;;;;;;;;5019242;28;20048;-81
2021/05/07 04:40:53;;;;;;;7.35;4.70;;;;;;;;;;5035253;28;20052;-79
2021/05/07 04:43:19;;;;;;;8.00;5.05;;;;;;;;;;5035058;28;20029;-80
2021/05/07 04:45:44;;;;;;;5.78;4.40;;;;;;;;;;5018727;28;20040;-80
2021/05/07 04:48:13;;;;;;;7.32;5.65;;;;;;;;;;5036317;28;20043;-80
2021/05/07 04:50:39;;;;;;;6.65;4.72;;;;;;;;;;5034805;28;20040;-81
2021/05/07 04:53:04;;;;;;;7.18;5.03;;;;;;;;;;5018877;28;20040;-81
2021/05/07 04:55:29;;;;;;;6.85;5.07;;;;;;;;;;5003579;28;20045;-80
2021/05/07 04:57:55;;;;;;;6.60;5.22;;;;;;;;;;5035931;28;20044;-80
2021/05/07 05:00:21;;;;;;;6.30;4.55;;;;;;;;;;5015943;28;20033;-79
2021/05/07 05:02:46;;;;;;;6.60;4.90;;;;;;;;;;5017034;28;20033;-80
2021/05/07 05:05:13;;;;;;;7.10;4.53;;;;;;;;;;5018046;28;20090;-80
2021/05/07 05:07:45;;;;;;;7.35;5.35;;;;;;;;;;5035186;28;20534;-79
2021/05/07 05:10:10;;;;;;;;;;;;;;;;;;5019333;28;20028;-80
2021/05/07 05:12:36;;;;;;;9.38;4.85;;;;;;;;;;5017993;28;19913;-81
2021/05/07 05:15:01;;;;;;;10.43;5.05;;;;;;;;;;5018217;28;20028;-81
2021/05/07 05:17:27;;;;;;;9.35;4.97;;;;;;;;;;5018335;28;20037;-82
2021/05/07 05:19:52;;;;;;;10.60;5.63;;;;;;;;;;5024141;28;20523;-81
2021/05/07 05:22:17;;;;;;;8.05;4.90;;;;;;;;;;5042287;28;20045;-81
2021/05/07 05:24:43;;;;;;;6.18;4.60;;;;;;;;;;5015026;28;20044;-82
2021/05/07 05:27:08;;;;;;;6.25;4.88;;;;;;;;;;5033185;28;20051;-83
2021/05/07 05:29:34;;;;;;;8.27;5.20;;;;;;;;;;5037770;28;20120;-84
2021/05/07 05:31:59;;;;;;;9.65;5.50;;;;;;;;;;5037281;28;20119;-83
2021/05/07 05:34:25;;;;;;;10.13;4.78;;;;;;;;;;5053962;28;20069;-83
2021/05/07 05:36:51;;;;;;;12.68;5.57;;;;;;;;;;5054306;28;20109;-83
2021/05/07 05:39:16;;;;;;;7.72;5.00;;;;;;;;;;5037308;28;20509;-83
2021/05/07 05:41:42;;;;;;;11.63;5.05;;;;;;;;;;5017150;28;20033;-84
2021/05/07 05:44:08;;;;;;;8.27;4.82;;;;;;;;;;5001045;28;20052;-84
2021/05/07 05:46:37;;;;;;;8.93;4.47;;;;;;;;;;5015235;28;20033;-86
2021/05/07 05:49:03;;;;;;;7.72;4.70;;;;;;;;;;5001307;28;20058;-86
2021/05/07 05:51:29;;;;;;;10.85;5.00;;;;;;;;;;5008689;28;20025;-87
2021/05/07 05:53:54;;;;;;;10.25;4.93;;;;;;;;;;5018713;28;20560;-88
2021/05/07 05:56:20;;;;;;;9.13;4.60;;;;;;;;;;5034347;28;20120;-87
2021/05/07 05:58:45;;;;;;;12.20;4.43;;;;;;;;;;5020351;28;20115;-88
2021/05/07 06:01:10;;;;;;;10.15;4.47;;;;;;;;;;5021314;28;20124;-85
2021/05/07 06:03:36;;;;;;;8.52;4.90;;;;;;;;;;5016987;28;20044;-87
2021/05/07 06:06:01;;;;;;;9.65;4.28;;;;;;;;;;5017479;28;20029;-86
2021/05/07 06:08:27;;;;;;;10.52;4.95;;;;;;;;;;5034195;28;20040;-87
2021/05/07 06:10:52;;;;;;;13.68;5.30;;;;;;;;;;5001607;28;20029;-89
2021/05/07 06:13:17;;;;;;;7.05;4.18;;;;;;;;;;5017325;28;20133;-89
2021/05/07 06:15:43;;;;;;;6.72;3.95;;;;;;;;;;5034419;28;20422;-88
2021/05/07 06:18:08;;;;;;;8.23;3.20;;;;;;;;;;5049191;28;20053;-89
2021/05/07 06:20:34;;;;;;;12.02;4.32;;;;;;;;;;5017966;28;20048;-86
2021/05/07 06:22:59;;;;;;;7.88;2.88;;;;;;;;;;5016722;28;20510;-86
2021/05/07 06:25:26;;;;;;;5.72;3.88;;;;;;;;;;5033385;28;20513;-85
2021/05/07 06:27:51;;;;;;;6.22;2.60;;;;;;;;;;5034199;28;20041;-84
2021/05/07 06:30:17;;;;;;;9.65;3.45;;;;;;;;;;5017430;28;20033;-86
2021/05/07 06:32:43;;;;;;;7.20;3.33;;;;;;;;;;5050216;28;20053;-86
2021/05/07 06:35:09;;;;;;;7.03;3.22;;;;;;;;;;5017216;28;20082;-84
2021/05/07 06:37:34;;;;;;;5.85;2.88;;;;;;;;;;5030730;28;20112;-82
2021/05/07 06:40:00;;;;;;;7.47;3.13;;;;;;;;;;5022892;28;20128;-83
2021/05/07 06:42:25;;;;;;;7.30;3.20;;;;;;;;;;5036559;28;20037;-83
2021/05/07 06:44:51;;;;;;;7.18;2.70;;;;;;;;;;5036513;28;20038;-82
2021/05/07 06:47:16;;;;;;;6.55;2.70;;;;;;;;;;5020256;28;20044;-82
2021/05/07 06:49:42;;;;;;;6.47;2.22;;;;;;;;;;5020358;28;20038;-82
2021/05/07 06:52:07;;;;;;;4.88;2.42;;;;;;;;;;5017794;28;20055;-81
2021/05/07 06:54:33;;;;;;;4.63;1.88;;;;;;;;;;5030384;28;20040;-82
2021/05/07 06:57:00;;;;;;;5.25;2.33;;;;;;;;;;5032789;28;20029;-82
2021/05/07 06:59:27;;;;;;;4.32;1.90;;;;;;;;;;5044846;28;20056;-82
2021/05/07 07:01:53;;;;;;;5.90;2.42;;;;;;;;;;5039349;28;20036;-81
2021/05/07 07:04:18;;;;;;;3.10;1.40;;;;;;;;;;5019566;28;20040;-82
2021/05/07 07:06:44;;;;;;;6.45;2.67;;;;;;;;;;5030107;28;20048;-81
2021/05/07 07:09:09;;;;;;;5.10;1.95;;;;;;;;;;5004042;28;20040;-82
2021/05/07 07:11:36;;;;;;;4.55;1.65;;;;;;;;;;5023765;28;20044;-81
2021/05/07 07:14:01;;;;;;;4.15;1.40;;;;;;;;;;5006665;28;20119;-82
2021/05/07 07:16:27;;;;;;;2.90;1.45;;;;;;;;;;5022778;28;20036;-81
2021/05/07 07:18:52;;;;;;;6.53;1.42;;;;;;;;;;5022071;28;20040;-79
2021/05/07 07:21:17;;;;;;;4.70;1.80;;;;;;;;;;5018200;28;20036;-81
2021/05/07 07:23:43;;;;;;;4.18;1.52;;;;;;;;;;5017921;28;20041;-80
2021/05/07 07:26:08;;;;;;;4.65;1.15;;;;;;;;;;5016652;28;20441;-80
2021/05/07 07:28:36;;;;;;;4.88;1.60;;;;;;;;;;5014002;28;20056;-80
2021/05/07 07:31:01;;;;;;;3.28;1.10;;;;;;;;;;5033975;28;20174;-81
2021/05/07 07:33:28;;;;;;;3.67;1.42;;;;;;;;;;5019599;28;20033;-79
2021/05/07 07:35:53;;;;;;;2.58;1.02;;;;;;;;;;5036704;28;20139;-81
2021/05/07 07:38:19;;;;;;;2.60;1.30;;;;;;;;;;5036197;28;20127;-82
2021/05/07 07:40:44;;;;;;;2.53;1.05;;;;;;;;;;5052587;28;20037;-82
2021/05/07 07:43:10;;;;;;;2.67;0.90;;;;;;;;;;5052422;28;20037;-82
2021/05/07 07:45:35;;;;;;;2.53;1.30;;;;;;;;;;5019704;28;20040;-81
2021/05/07 07:48:00;;;;;;;3.05;1.13;;;;;;;;;;5056161;28;20044;-82
2021/05/07 07:50:26;;;;;;;2.22;0.80;;;;;;;;;;5039609;28;20390;-82
2021/05/07 07:52:52;;;;;;;2.17;0.90;;;;;;;;;;5039646;28;20375;-81
2021/05/07 07:55:18;;;;;;;2.15;0.73;;;;;;;;;;5022999;28;20120;-82
2021/05/07 07:57:43;;;;;;;4.15;1.10;;;;;;;;;;5022521;28;20040;-79
2021/05/07 08:00:09;;;;;;;2.63;0.80;;;;;;;;;;5052043;28;20053;-80
2021/05/07 08:02:35;;;;;;;2.53;1.10;;;;;;;;;;5029212;28;20499;-79
2021/05/07 08:05:00;;;;;;;3.35;0.70;;;;;;;;;;5034536;28;20068;-79
2021/05/07 08:07:26;;;;;;;1.00;0.60;;;;;;;;;;5039282;28;20043;-80
2021/05/07 08:09:51;;;;;;;1.85;0.65;;;;;;;;;;5054622;28;20036;-79
2021/05/07 08:12:17;;;;;;;2.25;0.90;;;;;;;;;;5052477;28;20438;-80
2021/05/07 08:14:43;;;;;;;2.25;0.60;;;;;;;;;;5018877;28;20548;-79
2021/05/07 08:17:09;;;;;;;3.28;0.75;;;;;;;;;;5014811;28;20033;-78
2021/05/07 08:19:35;;;;;;;1.42;0.40;;;;;;;;;;5029741;28;20047;-79
2021/05/07 08:22:00;;;;;;;2.50;0.40;;;;;;;;;;5035682;28;20028;-79
2021/05/07 08:24:26;;;;;;;1.90;0.40;;;;;;;;;;5019694;28;20509;-80
2021/05/07 08:26:52;;;;;;;0.95;0.40;;;;;;;;;;5018729;28;20068;-80
2021/05/07 08:29:18;;;;;;;1.48;0.65;;;;;;;;;;5033481;28;20035;-80
2021/05/07 08:31:45;;;;;;;2.33;0.43;;;;;;;;;;5039414;28;20040;-79
2021/05/07 08:34:11;;;;;;;1.35;0.40;;;;;;;;;;5039142;28;20126;-79
2021/05/07 08:36:36;;;;;;;1.77;0.43;;;;;;;;;;5038967;28;20609;-80
2021/05/07 08:39:03;;;;;;;0.90;0.50;;;;;;;;;;5038641;28;20059;-80
2021/05/07 08:41:28;;;;;;;1.52;0.30;;;;;;;;;;5054588;28;20157;-80
2021/05/07 08:43:53;;;;;;;1.17;0.40;;;;;;;;;;5038419;28;20113;-79
2021/05/07 08:46:19;;;;;;;1.40;0.52;;;;;;;;;;5038361;28;20402;-79
2021/05/07 08:48:45;;;;;;;1.13;0.43;;;;;;;;;;5022086;28;20040;-80
2021/05/07 08:51:10;;;;;;;1.48;0.45;;;;;;;;;;5038342;28;20029;-82
2021/05/07 08:53:36;;;;;;;1.05;0.50;;;;;;;;;;5054747;28;20044;-82
2021/05/07 08:56:08;;;;;;;1.98;0.45;;;;;;;;;;5017750;28;20036;-80
2021/05/07 08:58:35;;;;;;;3.00;0.50;;;;;;;;;;5019519;28;20107;-88
2021/05/07 09:01:02;;;;;;;1.20;0.32;;;;;;;;;;5038365;28;20029;-83
2021/05/07 09:03:38;;;;;;;1.85;0.30;;;;;;;;;;5017867;28;20037;-84
2021/05/07 09:06:20;;;;;;;1.40;0.55;;;;;;;;;;5018605;28;20499;-83
2021/05/07 09:08:45;;;;;;;1.23;0.40;;;;;;;;;;5018402;28;20033;-82
2021/05/07 09:11:11;;;;;;;2.58;0.57;;;;;;;;;;5030087;28;20041;-82
2021/05/07 09:13:36;;;;;;;1.70;0.32;;;;;;;;;;5017975;28;20123;-81
2021/05/07 09:16:06;;;;;;;1.75;0.60;;;;;;;;;;5034737;28;20495;-83
2021/05/07 09:18:49;;;;;;;3.78;1.40;;;;;;;;;;5027892;28;20025;-83
2021/05/07 09:21:14;;;;;;;;;;;;;;;;;;5049852;28;20049;-84
2021/05/07 09:23:40;;;;;;;8.70;4.80;;;;;;;;;;5050964;28;19923;-84
2021/05/07 09:26:06;;;;;;;7.47;3.58;;;;;;;;;;5037215;28;20052;-83
2021/05/07 09:28:31;;;;;;;6.85;3.63;;;;;;;;;;5037502;28;20028;-84
2021/05/07 09:31:17;;;;;;;7.00;3.65;;;;;;;;;;5018599;28;20116;-84
2021/05/07 09:33:47;;;;;;;8.57;3.55;;;;;;;;;;5036597;28;20079;-84
2021/05/07 09:36:26;;;;;;;6.38;3.00;;;;;;;;;;5018260;28;20547;-85
2021/05/07 09:38:52;;;;;;;5.78;2.85;;;;;;;;;;5001673;28;20087;-84
2021/05/07 09:41:18;;;;;;;5.63;2.50;;;;;;;;;;5001161;28;20025;-84
2021/05/07 09:43:43;;;;;;;5.43;2.22;;;;;;;;;;5036940;28;20173;-84
2021/05/07 09:46:09;;;;;;;4.30;1.88;;;;;;;;;;5037647;28;20521;-84
2021/05/07 09:48:34;;;;;;;3.97;1.58;;;;;;;;;;5037702;28;20040;-84
2021/05/07 09:51:02;;;;;;;3.53;1.20;;;;;;;;;;5030760;28;20059;-84
2021/05/07 09:53:30;;;;;;;3.35;1.08;;;;;;;;;;5017550;28;20033;-84
2021/05/07 09:55:59;;;;;;;2.08;0.80;;;;;;;;;;5001034;28;20033;-84
2021/05/07 09:58:24;;;;;;;2.70;0.85;;;;;;;;;;5016694;28;20032;-84
2021/05/07 10:00:50;;;;;;;1.65;0.60;;;;;;;;;;5053794;28;20027;-84
2021/05/07 10:03:15;;;;;;;1.65;0.63;;;;;;;;;;5050916;28;20117;-84
2021/05/07 10:05:41;;;;;;;2.85;0.95;;;;;;;;;;5014704;28;20127;-84
2021/05/07 10:08:06;;;;;;;2.03;0.52;;;;;;;;;;5033437;28;20123;-84
2021/05/07 10:10:41;;;;;;;1.88;0.93;;;;;;;;;;5016996;28;20433;-84
2021/05/07 10:13:23;;;;;;;2.10;0.50;;;;;;;;;;5017824;28;20037;-85
2021/05/07 10:15:48;;;;;;;2.70;0.77;;;;;;;;;;5034270;28;20036;-84
2021/05/07 10:18:24;;;;;;;2.97;0.60;;;;;;;;;;5017196;28;20505;-84
2021/05/07 10:21:03;;;;;;;2.42;0.80;;;;;;;;;;5017379;28;20036;-84
2021/05/07 10:23:29;;;;;;;3.45;0.95;;;;;;;;;;5031841;28;20138;-83
2021/05/07 10:26:12;;;;;;;5.40;1.63;;;;;;;;;;5019279;28;20037;-85
2021/05/07 10:28:45;;;;;;;6.75;1.80;;;;;;;;;;5000513;28;20040;-84
2021/05/07 10:31:11;;;;;;;6.65;1.90;;;;;;;;;;5055781;28;20111;-84
2021/05/07 10:33:37;;;;;;;8.73;2.50;;;;;;;;;;5039842;28;20045;-84
2021/05/07 10:36:02;;;;;;;7.13;2.45;;;;;;;;;;5023870;28;20029;-83
2021/05/07 10:38:28;;;;;;;5.60;2.30;;;;;;;;;;5071308;28;20041;-84
2021/05/07 10:41:08;;;;;;;8.50;3.17;;;;;;;;;;5043616;28;20042;-83
2021/05/07 10:43:46;;;;;;;7.30;3.17;;;;;;;;;;5026871;28;20256;-84
2021/05/07 10:46:25;;;;;;;9.80;3.60;;;;;;;;;;5027598;28;20028;-84
2021/05/07 10:48:54;;;;;;;10.05;3.50;;;;;;;;;;5043511;28;20118;-84
2021/05/07 10:51:19;;;;;;;8.45;3.00;;;;;;;;;;5023533;28;20395;-83
2021/05/07 10:53:45;;;;;;;8.50;3.45;;;;;;;;;;5011751;28;20197;-83
2021/05/07 10:56:18;;;;;;;7.53;2.70;;;;;;;;;;5026680;28;20033;-83
2021/05/07 10:58:43;;;;;;;6.40;2.38;;;;;;;;;;5041731;28;20530;-83
2021/05/07 11:01:23;;;;;;;6.93;2.40;;;;;;;;;;5022487;28;20021;-83
2021/05/07 11:04:08;;;;;;;7.20;2.60;;;;;;;;;;5027865;28;20059;-83
2021/05/07 11:06:42;;;;;;;5.93;1.90;;;;;;;;;;5023544;28;20029;-83
2021/05/07 11:09:14;;;;;;;4.00;1.85;;;;;;;;;;5023131;28;20029;-82
2021/05/07 11:11:39;;;;;;;4.72;1.65;;;;;;;;;;5030303;28;20127;-84
2021/05/07 11:14:08;;;;;;;4.20;1.75;;;;;;;;;;5045830;28;20064;-83
2021/05/07 11:16:41;;;;;;;3.88;1.48;;;;;;;;;;5041302;28;20047;-83
2021/05/07 11:19:06;;;;;;;3.63;1.33;;;;;;;;;;5021513;28;20025;-82
2021/05/07 11:21:31;;;;;;;4.30;1.90;;;;;;;;;;5042928;28;20084;-83
2021/05/07 11:23:58;;;;;;;8.02;3.05;;;;;;;;;;5020425;28;20543;-83
2021/05/07 11:26:36;;;;;;;7.38;3.15;;;;;;;;;;5007565;28;20036;-82
2021/05/07 11:29:02;;;;;;;5.90;3.25;;;;;;;;;;5021985;28;20028;-83
2021/05/07 11:31:28;;;;;;;5.28;2.92;;;;;;;;;;5039100;28;20036;-83
2021/05/07 11:33:53;;;;;;;5.20;3.00;;;;;;;;;;5056311;28;20048;-83
2021/05/07 11:36:19;;;;;;;5.50;2.85;;;;;;;;;;5039509;28;20041;-83
2021/05/07 11:38:44;;;;;;;3.83;2.10;;;;;;;;;;5044393;28;20035;-83
2021/05/07 11:41:17;;;;;;;7.45;2.80;;;;;;;;;;5058511;28;20040;-82
2021/05/07 11:43:43;;;;;;;5.47;2.10;;;;;;;;;;5023042;28;20120;-82
2021/05/07 11:46:08;;;;;;;2.97;1.65;;;;;;;;;;5039653;28;20042;-83
2021/05/07 11:48:34;;;;;;;3.42;1.27;;;;;;;;;;5038511;28;20040;-82
2021/05/07 11:51:06;;;;;;;2.15;1.25;;;;;;;;;;5055501;28;20471;-83
2021/05/07 11:53:35;;;;;;;2.72;1.00;;;;;;;;;;5055343;28;20033;-82
2021/05/07 11:56:01;;;;;;;3.10;1.08;;;;;;;;;;5056365;28;20392;-82
2021/05/07 11:58:30;;;;;;;2.58;1.02;;;;;;;;;;5022143;28;20036;-82
2021/05/07 12:00:56;;;;;;;2.72;1.20;;;;;;;;;;5018116;28;20037;-82
2021/05/07 12:03:24;;;;;;;2.75;1.13;;;;;;;;;;5031248;28;20037;-82
2021/05/07 12:05:50;;;;;;;2.63;0.70;;;;;;;;;;5052897;28;20037;-83
2021/05/07 12:08:25;;;;;;;3.20;0.70;;;;;;;;;;5045120;28;20044;-82
2021/05/07 12:10:50;;;;;;;2.17;1.00;;;;;;;;;;5055986;28;20064;-82
2021/05/07 12:13:23;;;;;;;2.67;0.90;;;;;;;;;;5052538;28;20090;-83
2021/05/07 12:15:48;;;;;;;2.20;1.05;;;;;;;;;;5022781;28;20045;-79
2021/05/07 12:18:18;;;;;;;5.05;1.48;;;;;;;;;;5042580;28;20436;-80
2021/05/07 12:20:45;;;;;;;4.18;1.35;;;;;;;;;;5049402;28;20043;-79
2021/05/07 12:23:10;;;;;;;5.18;1.50;;;;;;;;;;5044151;28;20032;-79
2021/05/07 12:25:46;;;;;;;6.20;1.30;;;;;;;;;;5049207;28;20045;-79
2021/05/07 12:28:20;;;;;;;6.88;1.40;;;;;;;;;;5052509;28;20041;-79
2021/05/07 12:30:47;;;;;;;7.93;1.75;;;;;;;;;;5035837;28;20499;-80
2021/05/07 12:33:15;;;;;;;5.10;1.85;;;;;;;;;;5020564;28;20079;-80
2021/05/07 12:35:42;;;;;;;4.60;1.65;;;;;;;;;;5055438;28;20036;-79
2021/05/07 12:38:27;;;;;;;7.10;1.48;;;;;;;;;;5071628;28;20029;-80
2021/05/07 12:40:54;;;;;;;4.60;1.35;;;;;;;;;;5071760;28;20028;-79
2021/05/07 12:43:20;;;;;;;6.38;1.42;;;;;;;;;;5029009;28;20514;-79
2021/05/07 12:45:49;;;;;;;5.18;1.48;;;;;;;;;;5035599;28;20178;-79
2021/05/07 12:48:14;;;;;;;2.72;1.00;;;;;;;;;;5017890;28;20044;-80
2021/05/07 12:50:41;;;;;;;4.90;1.52;;;;;;;;;;5036699;28;20402;-79
2021/05/07 12:53:21;;;;;;;5.40;1.10;;;;;;;;;;5034770;28;20170;-82
2021/05/07 12:55:47;;;;;;;6.43;1.38;;;;;;;;;;5033637;28;20495;-81
2021/05/07 12:58:13;;;;;;;6.07;1.70;;;;;;;;;;5035141;28;20044;-81
2021/05/07 13:00:40;;;;;;;4.65;1.13;;;;;;;;;;5021568;28;20035;-80
2021/05/07 13:03:05;;;;;;;6.90;1.58;;;;;;;;;;5022165;28;20090;-80
2021/05/07 13:05:31;;;;;;;4.10;1.23;;;;;;;;;;5038063;28;20032;-80
2021/05/07 13:07:56;;;;;;;5.95;1.52;;;;;;;;;;5038001;28;20041;-80
2021/05/07 13:10:22;;;;;;;4.80;1.42;;;;;;;;;;5054536;28;20040;-80
2021/05/07 13:12:49;;;;;;;4.80;1.27;;;;;;;;;;5054391;28;20033;-80
2021/05/07 13:15:15;;;;;;;3.42;0.88;;;;;;;;;;5039210;28;20041;-80
2021/05/07 13:17:41;;;;;;;4.55;1.20;;;;;;;;;;5054745;28;20055;-80
2021/05/07 13:20:07;;;;;;;5.15;2.25;;;;;;;;;;5038283;28;20040;-80
2021/05/07 13:22:32;;;;;;;3.97;1.33;;;;;;;;;;5050978;28;20033;-80
2021/05/07 13:24:58;;;;;;;4.90;1.73;;;;;;;;;;5018994;28;20036;-80
2021/05/07 13:27:23;;;;;;;6.93;1.90;;;;;;;;;;5054435;28;20136;-80
2021/05/07 13:29:49;;;;;;;6.28;2.20;;;;;;;;;;5038003;28;20051;-80
2021/05/07 13:32:17;;;;;;;7.70;2.13;;;;;;;;;;5021021;28;20032;-80
2021/05/07 13:34:47;;;;;;;6.82;2.75;;;;;;;;;;5054991;28;20075;-80
2021/05/07 13:37:13;;;;;;;6.63;2.55;;;;;;;;;;5054795;28;20036;-80
2021/05/07 13:39:38;;;;;;;6.13;2.30;;;;;;;;;;5021395;28;20685;-80
2021/05/07 13:42:04;;;;;;;6.72;2.75;;;;;;;;;;5053908;28;20043;-80
2021/05/07 13:44:30;;;;;;;6.97;3.28;;;;;;;;;;5037376;28;20418;-80
2021/05/07 13:46:55;;;;;;;6.75;3.10;;;;;;;;;;5053910;28;20035;-80
2021/05/07 13:49:21;;;;;;;6.45;2.83;;;;;;;;;;5021029;28;20035;-80
2021/05/07 13:51:46;;;;;;;7.93;2.67;;;;;;;;;;5037328;28;20453;-80
2021/05/07 13:54:12;;;;;;;6.43;2.75;;;;;;;;;;5037898;28;20048;-80
2021/05/07 13:56:37;;;;;;;8.48;3.30;;;;;;;;;;5053864;28;20044;-80
2021/05/07 13:59:03;;;;;;;7.35;3.03;;;;;;;;;;5050612;28;20051;-80
2021/05/07 14:01:28;;;;;;;5.80;2.67;;;;;;;;;;5033793;28;20410;-80
2021/05/07 14:03:54;;;;;;;7.85;2.83;;;;;;;;;;5017443;28;20052;-80
2021/05/07 14:06:39;;;;;;;7.60;3.05;;;;;;;;;;5018152;28;20048;-80
2021/05/07 14:09:10;;;;;;;7.15;2.60;;;;;;;;;;5016193;28;20044;-80
2021/05/07 14:11:36;;;;;;;6.32;3.15;;;;;;;;;;5016105;28;20144;-80
2021/05/07 14:14:12;;;;;;;5.57;2.45;;;;;;;;;;5015978;28;20032;-80
2021/05/07 14:16:38;;;;;;;7.35;2.50;;;;;;;;;;5032857;28;20140;-80
2021/05/07 14:19:04;;;;;;;6.30;2.22;;;;;;;;;;5020185;28;20126;-80
2021/05/07 14:21:30;;;;;;;5.93;2.50;;;;;;;;;;5012762;28;20041;-80
2021/05/07 14:23:55;;;;;;;5.50;2.15;;;;;;;;;;5016511;28;20064;-81
2021/05/07 14:26:21;;;;;;;5.13;2.33;;;;;;;;;;5016077;28;20051;-80
2021/05/07 14:28:46;;;;;;;6.03;2.45;;;;;;;;;;5032431;28;20063;-80
2021/05/07 14:31:12;;;;;;;9.82;4.63;;;;;;;;;;5032234;28;20041;-80
2021/05/07 14:33:37;;;;;;;8.32;4.65;;;;;;;;;;5032204;28;20064;-80
2021/05/07 14:36:03;;;;;;;9.73;3.63;;;;;;;;;;4999802;28;20602;-80
2021/05/07 14:38:29;;;;;;;5.85;3.50;;;;;;;;;;4997632;28;20053;-80
2021/05/07 14:40:54;;;;;;;8.35;3.80;;;;;;;;;;5017254;28;20031;-80
2021/05/07 14:43:20;;;;;;;8.80;4.35;;;;;;;;;;5000362;28;20430;-80